sensor_id;sensor_type;location;lat;lon;timestamp;temperature;humidity
51029;DHT22;37054;52.054;8.600;2024-02-16T00:00:00;15.60;71.00
51029;DHT22;37054;52.054;8.600;2024-02-16T00:02:27;15.50;70.90
51029;DHT22;37054;52.054;8.600;2024-02-16T00:04:52;15.50;70.80
51029;DHT22;37054;52.054;8.600;2024-02-16T00:07:18;15.50;71.00
51029;DHT22;37054;52.054;8.600;2024-02-16T00:09:43;15.50;70.80
51029;DHT22;37054;52.054;8.600;2024-02-16T00:12:09;15.50;70.90
51029;DHT22;37054;52.054;8.600;2024-02-16T00:14:34;15.40;70.90
51029;DHT22;37054;52.054;8.600;2024-02-16T00:16:59;15.40;70.90
51029;DHT22;37054;52.054;8.600;2024-02-16T00:19:25;15.40;70.90
51029;DHT22;37054;52.054;8.600;2024-02-16T00:21:52;15.40;70.80
51029;DHT22;37054;52.054;8.600;2024-02-16T00:24:17;15.30;70.80
51029;DHT22;37054;52.054;8.600;2024-02-16T00:26:43;15.30;70.60
51029;DHT22;37054;52.054;8.600;2024-02-16T00:29:11;15.30;70.50
51029;DHT22;37054;52.054;8.600;2024-02-16T00:31:36;15.30;70.50
51029;DHT22;37054;52.054;8.600;2024-02-16T00:34:02;15.20;70.60
51029;DHT22;37054;52.054;8.600;2024-02-16T00:36:27;15.20;70.80
51029;DHT22;37054;52.054;8.600;2024-02-16T00:38:53;15.20;70.80
51029;DHT22;37054;52.054;8.600;2024-02-16T00:41:21;15.20;70.70
51029;DHT22;37054;52.054;8.600;2024-02-16T00:43:47;15.20;70.70
51029;DHT22;37054;52.054;8.600;2024-02-16T00:46:13;15.10;70.50
51029;DHT22;37054;52.054;8.600;2024-02-16T00:48:38;15.00;70.40
51029;DHT22;37054;52.054;8.600;2024-02-16T00:51:04;15.00;70.50
51029;DHT22;37054;52.054;8.600;2024-02-16T00:53:29;15.00;70.50
51029;DHT22;37054;52.054;8.600;2024-02-16T00:55:54;15.00;70.40
51029;DHT22;37054;52.054;8.600;2024-02-16T00:58:20;14.90;70.40
51029;DHT22;37054;52.054;8.600;2024-02-16T01:00:45;14.80;70.40
51029;DHT22;37054;52.054;8.600;2024-02-16T01:03:11;14.80;70.40
51029;DHT22;37054;52.054;8.600;2024-02-16T01:05:39;14.80;70.50
51029;DHT22;37054;52.054;8.600;2024-02-16T01:08:06;14.70;70.60
51029;DHT22;37054;52.054;8.600;2024-02-16T01:10:32;14.70;70.70
51029;DHT22;37054;52.054;8.600;2024-02-16T01:12:57;14.70;70.80
51029;DHT22;37054;52.054;8.600;2024-02-16T01:15:23;14.70;71.00
51029;DHT22;37054;52.054;8.600;2024-02-16T01:17:48;14.70;71.00
51029;DHT22;37054;52.054;8.600;2024-02-16T01:20:16;14.70;71.00
51029;DHT22;37054;52.054;8.600;2024-02-16T01:22:41;14.70;71.00
51029;DHT22;37054;52.054;8.600;2024-02-16T01:25:08;14.70;71.20
51029;DHT22;37054;52.054;8.600;2024-02-16T01:27:34;14.80;71.20
51029;DHT22;37054;52.054;8.600;2024-02-16T01:30:00;14.80;71.10
51029;DHT22;37054;52.054;8.600;2024-02-16T01:32:26;14.70;70.80
51029;DHT22;37054;52.054;8.600;2024-02-16T01:34:52;14.70;70.60
51029;DHT22;37054;52.054;8.600;2024-02-16T01:37:17;14.70;70.30
51029;DHT22;37054;52.054;8.600;2024-02-16T01:39:43;14.60;70.00
51029;DHT22;37054;52.054;8.600;2024-02-16T01:42:09;14.50;69.80
51029;DHT22;37054;52.054;8.600;2024-02-16T01:44:35;14.50;69.70
51029;DHT22;37054;52.054;8.600;2024-02-16T01:47:01;14.40;69.70
51029;DHT22;37054;52.054;8.600;2024-02-16T01:49:27;14.30;69.70
51029;DHT22;37054;52.054;8.600;2024-02-16T01:51:52;14.30;69.70
51029;DHT22;37054;52.054;8.600;2024-02-16T01:54:18;14.20;69.60
51029;DHT22;37054;52.054;8.600;2024-02-16T01:56:44;14.20;69.60
51029;DHT22;37054;52.054;8.600;2024-02-16T01:59:10;14.10;69.70
51029;DHT22;37054;52.054;8.600;2024-02-16T02:01:36;14.00;69.70
51029;DHT22;37054;52.054;8.600;2024-02-16T02:04:01;14.00;69.80
51029;DHT22;37054;52.054;8.600;2024-02-16T02:06:27;14.00;70.00
51029;DHT22;37054;52.054;8.600;2024-02-16T02:08:53;14.00;70.00
51029;DHT22;37054;52.054;8.600;2024-02-16T02:11:18;14.00;70.10
51029;DHT22;37054;52.054;8.600;2024-02-16T02:13:44;13.90;70.10
51029;DHT22;37054;52.054;8.600;2024-02-16T02:16:10;13.90;70.10
51029;DHT22;37054;52.054;8.600;2024-02-16T02:18:36;13.90;70.20
51029;DHT22;37054;52.054;8.600;2024-02-16T02:21:01;13.90;70.30
51029;DHT22;37054;52.054;8.600;2024-02-16T02:23:27;13.90;70.40
51029;DHT22;37054;52.054;8.600;2024-02-16T02:25:52;13.90;70.70
51029;DHT22;37054;52.054;8.600;2024-02-16T02:28:18;13.90;70.90
51029;DHT22;37054;52.054;8.600;2024-02-16T02:30:44;14.00;71.10
51029;DHT22;37054;52.054;8.600;2024-02-16T02:33:13;14.00;71.20
51029;DHT22;37054;52.054;8.600;2024-02-16T02:35:39;14.00;71.40
51029;DHT22;37054;52.054;8.600;2024-02-16T02:38:05;14.10;71.70
51029;DHT22;37054;52.054;8.600;2024-02-16T02:40:31;14.30;71.80
51029;DHT22;37054;52.054;8.600;2024-02-16T02:42:57;14.30;71.80
51029;DHT22;37054;52.054;8.600;2024-02-16T02:45:23;14.30;71.80
51029;DHT22;37054;52.054;8.600;2024-02-16T02:47:50;14.40;71.80
51029;DHT22;37054;52.054;8.600;2024-02-16T02:50:16;14.40;71.80
51029;DHT22;37054;52.054;8.600;2024-02-16T02:52:41;14.50;71.80
51029;DHT22;37054;52.054;8.600;2024-02-16T02:55:07;14.50;71.80
51029;DHT22;37054;52.054;8.600;2024-02-16T02:57:32;14.60;71.80
51029;DHT22;37054;52.054;8.600;2024-02-16T03:00:05;14.60;71.80
51029;DHT22;37054;52.054;8.600;2024-02-16T03:02:32;14.60;71.90
51029;DHT22;37054;52.054;8.600;2024-02-16T03:04:57;14.70;71.90
51029;DHT22;37054;52.054;8.600;2024-02-16T03:07:23;14.70;71.90
51029;DHT22;37054;52.054;8.600;2024-02-16T03:09:48;14.70;71.90
51029;DHT22;37054;52.054;8.600;2024-02-16T03:12:13;14.80;71.90
51029;DHT22;37054;52.054;8.600;2024-02-16T03:14:39;14.80;71.80
51029;DHT22;37054;52.054;8.600;2024-02-16T03:17:04;14.80;71.70
51029;DHT22;37054;52.054;8.600;2024-02-16T03:19:30;14.80;71.50
51029;DHT22;37054;52.054;8.600;2024-02-16T03:21:56;14.80;71.50
51029;DHT22;37054;52.054;8.600;2024-02-16T03:24:21;14.80;71.40
51029;DHT22;37054;52.054;8.600;2024-02-16T03:26:47;14.80;71.30
51029;DHT22;37054;52.054;8.600;2024-02-16T03:29:13;14.80;71.30
51029;DHT22;37054;52.054;8.600;2024-02-16T03:31:39;14.80;71.20
51029;DHT22;37054;52.054;8.600;2024-02-16T03:34:04;14.80;71.20
51029;DHT22;37054;52.054;8.600;2024-02-16T03:36:30;14.80;71.20
51029;DHT22;37054;52.054;8.600;2024-02-16T03:38:56;14.80;71.30
51029;DHT22;37054;52.054;8.600;2024-02-16T03:41:22;14.70;71.20
51029;DHT22;37054;52.054;8.600;2024-02-16T03:43:49;14.70;71.20
51029;DHT22;37054;52.054;8.600;2024-02-16T03:46:15;14.70;71.00
51029;DHT22;37054;52.054;8.600;2024-02-16T03:48:41;14.70;70.80
51029;DHT22;37054;52.054;8.600;2024-02-16T03:51:07;14.70;70.80
51029;DHT22;37054;52.054;8.600;2024-02-16T03:53:32;14.70;70.70
51029;DHT22;37054;52.054;8.600;2024-02-16T03:55:58;14.70;70.70
51029;DHT22;37054;52.054;8.600;2024-02-16T03:58:24;14.70;71.00
51029;DHT22;37054;52.054;8.600;2024-02-16T04:00:50;14.70;71.00
51029;DHT22;37054;52.054;8.600;2024-02-16T04:03:16;14.70;71.10
51029;DHT22;37054;52.054;8.600;2024-02-16T04:05:42;14.70;71.10
51029;DHT22;37054;52.054;8.600;2024-02-16T04:08:07;14.70;71.00
51029;DHT22;37054;52.054;8.600;2024-02-16T04:10:33;14.70;71.10
51029;DHT22;37054;52.054;8.600;2024-02-16T04:13:00;14.70;71.00
51029;DHT22;37054;52.054;8.600;2024-02-16T04:15:26;14.70;71.10
51029;DHT22;37054;52.054;8.600;2024-02-16T04:17:52;14.70;71.10
51029;DHT22;37054;52.054;8.600;2024-02-16T04:20:18;14.70;71.10
51029;DHT22;37054;52.054;8.600;2024-02-16T04:22:44;14.70;71.00
51029;DHT22;37054;52.054;8.600;2024-02-16T04:25:09;14.70;71.20
51029;DHT22;37054;52.054;8.600;2024-02-16T04:27:36;14.70;71.10
51029;DHT22;37054;52.054;8.600;2024-02-16T04:30:02;14.70;71.10
51029;DHT22;37054;52.054;8.600;2024-02-16T04:32:27;14.70;71.10
51029;DHT22;37054;52.054;8.600;2024-02-16T04:34:53;14.70;71.20
51029;DHT22;37054;52.054;8.600;2024-02-16T04:37:18;14.80;71.20
51029;DHT22;37054;52.054;8.600;2024-02-16T04:39:47;14.80;71.30
51029;DHT22;37054;52.054;8.600;2024-02-16T04:42:13;14.80;71.40
51029;DHT22;37054;52.054;8.600;2024-02-16T04:44:38;14.80;71.30
51029;DHT22;37054;52.054;8.600;2024-02-16T04:47:04;14.80;71.30
51029;DHT22;37054;52.054;8.600;2024-02-16T04:49:30;14.80;71.20
51029;DHT22;37054;52.054;8.600;2024-02-16T04:51:56;14.80;71.20
51029;DHT22;37054;52.054;8.600;2024-02-16T04:54:21;14.80;71.10
51029;DHT22;37054;52.054;8.600;2024-02-16T04:56:48;14.80;71.00
51029;DHT22;37054;52.054;8.600;2024-02-16T04:59:14;14.70;71.00
51029;DHT22;37054;52.054;8.600;2024-02-16T05:01:40;14.70;70.80
51029;DHT22;37054;52.054;8.600;2024-02-16T05:04:05;14.70;70.90
51029;DHT22;37054;52.054;8.600;2024-02-16T05:06:32;14.70;70.90
51029;DHT22;37054;52.054;8.600;2024-02-16T05:08:57;14.70;70.80
51029;DHT22;37054;52.054;8.600;2024-02-16T05:11:23;14.60;70.60
51029;DHT22;37054;52.054;8.600;2024-02-16T05:13:50;14.60;70.50
51029;DHT22;37054;52.054;8.600;2024-02-16T05:16:15;14.60;70.40
51029;DHT22;37054;52.054;8.600;2024-02-16T05:18:41;14.60;70.50
51029;DHT22;37054;52.054;8.600;2024-02-16T05:21:07;14.50;70.40
51029;DHT22;37054;52.054;8.600;2024-02-16T05:23:32;14.50;70.50
51029;DHT22;37054;52.054;8.600;2024-02-16T05:25:58;14.50;70.50
51029;DHT22;37054;52.054;8.600;2024-02-16T05:28:23;14.50;70.50
51029;DHT22;37054;52.054;8.600;2024-02-16T05:30:49;14.50;70.50
51029;DHT22;37054;52.054;8.600;2024-02-16T05:33:14;14.50;70.70
51029;DHT22;37054;52.054;8.600;2024-02-16T05:35:40;14.50;70.70
51029;DHT22;37054;52.054;8.600;2024-02-16T05:38:06;14.50;70.80
51029;DHT22;37054;52.054;8.600;2024-02-16T05:40:36;14.40;71.00
51029;DHT22;37054;52.054;8.600;2024-02-16T05:43:21;14.50;71.00
51029;DHT22;37054;52.054;8.600;2024-02-16T05:45:46;14.50;71.00
51029;DHT22;37054;52.054;8.600;2024-02-16T05:48:12;14.50;71.10
51029;DHT22;37054;52.054;8.600;2024-02-16T05:50:38;14.50;71.00
51029;DHT22;37054;52.054;8.600;2024-02-16T05:53:03;14.50;70.80
51029;DHT22;37054;52.054;8.600;2024-02-16T05:55:29;14.50;70.60
51029;DHT22;37054;52.054;8.600;2024-02-16T05:57:54;14.40;70.40
51029;DHT22;37054;52.054;8.600;2024-02-16T06:00:21;14.40;70.20
51029;DHT22;37054;52.054;8.600;2024-02-16T06:02:47;14.30;70.10
51029;DHT22;37054;52.054;8.600;2024-02-16T06:05:12;14.30;70.20
51029;DHT22;37054;52.054;8.600;2024-02-16T06:07:38;14.30;70.20
51029;DHT22;37054;52.054;8.600;2024-02-16T06:10:04;14.20;70.30
51029;DHT22;37054;52.054;8.600;2024-02-16T06:12:33;14.20;70.50
51029;DHT22;37054;52.054;8.600;2024-02-16T06:14:58;14.20;70.50
51029;DHT22;37054;52.054;8.600;2024-02-16T06:17:24;14.20;70.60
51029;DHT22;37054;52.054;8.600;2024-02-16T06:19:50;14.20;70.70
51029;DHT22;37054;52.054;8.600;2024-02-16T06:22:16;14.20;70.60
51029;DHT22;37054;52.054;8.600;2024-02-16T06:24:41;14.30;70.60
51029;DHT22;37054;52.054;8.600;2024-02-16T06:27:07;14.30;70.70
51029;DHT22;37054;52.054;8.600;2024-02-16T06:29:34;14.30;70.70
51029;DHT22;37054;52.054;8.600;2024-02-16T06:31:59;14.30;70.60
51029;DHT22;37054;52.054;8.600;2024-02-16T06:34:25;14.30;70.60
51029;DHT22;37054;52.054;8.600;2024-02-16T06:36:50;14.30;70.70
51029;DHT22;37054;52.054;8.600;2024-02-16T06:39:17;14.30;70.90
51029;DHT22;37054;52.054;8.600;2024-02-16T06:41:44;14.30;70.90
51029;DHT22;37054;52.054;8.600;2024-02-16T06:44:11;14.40;71.00
51029;DHT22;37054;52.054;8.600;2024-02-16T06:46:36;14.40;71.10
51029;DHT22;37054;52.054;8.600;2024-02-16T06:49:02;14.40;71.30
51029;DHT22;37054;52.054;8.600;2024-02-16T06:51:27;14.50;71.40
51029;DHT22;37054;52.054;8.600;2024-02-16T06:53:54;14.60;71.60
51029;DHT22;37054;52.054;8.600;2024-02-16T06:56:20;14.70;71.60
51029;DHT22;37054;52.054;8.600;2024-02-16T06:58:46;14.70;71.60
51029;DHT22;37054;52.054;8.600;2024-02-16T07:01:15;14.80;71.60
51029;DHT22;37054;52.054;8.600;2024-02-16T07:03:41;14.80;71.50
51029;DHT22;37054;52.054;8.600;2024-02-16T07:06:06;14.90;71.70
51029;DHT22;37054;52.054;8.600;2024-02-16T07:08:36;14.90;71.80
51029;DHT22;37054;52.054;8.600;2024-02-16T07:11:01;15.00;71.90
51029;DHT22;37054;52.054;8.600;2024-02-16T07:13:28;15.20;72.00
51029;DHT22;37054;52.054;8.600;2024-02-16T07:15:54;15.30;72.20
51029;DHT22;37054;52.054;8.600;2024-02-16T07:18:20;15.50;72.30
51029;DHT22;37054;52.054;8.600;2024-02-16T07:20:46;15.70;72.30
51029;DHT22;37054;52.054;8.600;2024-02-16T07:23:13;15.80;72.20
51029;DHT22;37054;52.054;8.600;2024-02-16T07:25:41;16.00;72.60
51029;DHT22;37054;52.054;8.600;2024-02-16T07:28:07;16.20;72.60
51029;DHT22;37054;52.054;8.600;2024-02-16T07:30:33;16.50;72.50
51029;DHT22;37054;52.054;8.600;2024-02-16T07:32:59;16.70;72.80
51029;DHT22;37054;52.054;8.600;2024-02-16T07:35:25;17.00;73.00
51029;DHT22;37054;52.054;8.600;2024-02-16T07:37:51;17.20;72.50
51029;DHT22;37054;52.054;8.600;2024-02-16T07:40:20;17.50;72.70
51029;DHT22;37054;52.054;8.600;2024-02-16T07:42:46;17.70;72.40
51029;DHT22;37054;52.054;8.600;2024-02-16T07:45:11;17.70;71.90
51029;DHT22;37054;52.054;8.600;2024-02-16T07:47:40;17.90;72.00
51029;DHT22;37054;52.054;8.600;2024-02-16T07:50:06;17.90;71.70
51029;DHT22;37054;52.054;8.600;2024-02-16T07:52:31;18.00;71.50
51029;DHT22;37054;52.054;8.600;2024-02-16T07:54:57;18.00;71.50
51029;DHT22;37054;52.054;8.600;2024-02-16T07:57:23;18.10;71.50
51029;DHT22;37054;52.054;8.600;2024-02-16T07:59:49;18.10;71.60
51029;DHT22;37054;52.054;8.600;2024-02-16T08:02:14;18.20;71.70
51029;DHT22;37054;52.054;8.600;2024-02-16T08:04:50;18.20;71.50
51029;DHT22;37054;52.054;8.600;2024-02-16T08:07:16;18.30;71.50
51029;DHT22;37054;52.054;8.600;2024-02-16T08:09:48;18.30;71.30
51029;DHT22;37054;52.054;8.600;2024-02-16T08:12:14;18.40;71.30
51029;DHT22;37054;52.054;8.600;2024-02-16T08:14:40;18.50;71.40
51029;DHT22;37054;52.054;8.600;2024-02-16T08:17:06;18.50;71.30
51029;DHT22;37054;52.054;8.600;2024-02-16T08:19:36;18.50;70.80
51029;DHT22;37054;52.054;8.600;2024-02-16T08:22:03;18.50;71.00
51029;DHT22;37054;52.054;8.600;2024-02-16T08:24:32;18.50;71.30
51029;DHT22;37054;52.054;8.600;2024-02-16T08:26:57;18.60;71.10
51029;DHT22;37054;52.054;8.600;2024-02-16T08:29:23;18.70;71.10
51029;DHT22;37054;52.054;8.600;2024-02-16T08:31:52;18.70;70.80
51029;DHT22;37054;52.054;8.600;2024-02-16T08:34:18;18.70;70.90
51029;DHT22;37054;52.054;8.600;2024-02-16T08:36:44;18.70;71.00
51029;DHT22;37054;52.054;8.600;2024-02-16T08:39:11;18.70;70.60
51029;DHT22;37054;52.054;8.600;2024-02-16T08:41:37;18.70;70.40
51029;DHT22;37054;52.054;8.600;2024-02-16T08:44:03;18.80;71.10
51029;DHT22;37054;52.054;8.600;2024-02-16T08:46:29;18.90;71.50
51029;DHT22;37054;52.054;8.600;2024-02-16T08:48:55;19.00;71.50
51029;DHT22;37054;52.054;8.600;2024-02-16T08:51:20;19.10;71.90
51029;DHT22;37054;52.054;8.600;2024-02-16T08:53:46;19.20;71.70
51029;DHT22;37054;52.054;8.600;2024-02-16T08:56:12;19.20;71.80
51029;DHT22;37054;52.054;8.600;2024-02-16T08:58:38;19.30;71.70
51029;DHT22;37054;52.054;8.600;2024-02-16T09:01:04;19.40;71.20
51029;DHT22;37054;52.054;8.600;2024-02-16T09:03:30;19.40;70.50
51029;DHT22;37054;52.054;8.600;2024-02-16T09:06:02;19.30;70.50
51029;DHT22;37054;52.054;8.600;2024-02-16T09:08:28;19.40;69.60
51029;DHT22;37054;52.054;8.600;2024-02-16T09:10:58;19.40;69.50
51029;DHT22;37054;52.054;8.600;2024-02-16T09:13:24;19.40;69.40
51029;DHT22;37054;52.054;8.600;2024-02-16T09:15:49;19.40;69.90
51029;DHT22;37054;52.054;8.600;2024-02-16T09:18:17;19.50;70.10
51029;DHT22;37054;52.054;8.600;2024-02-16T09:20:42;19.50;70.20
51029;DHT22;37054;52.054;8.600;2024-02-16T09:23:08;19.60;70.30
51029;DHT22;37054;52.054;8.600;2024-02-16T09:25:34;19.70;70.80
51029;DHT22;37054;52.054;8.600;2024-02-16T09:28:00;19.80;70.90
51029;DHT22;37054;52.054;8.600;2024-02-16T09:30:26;19.80;70.40
51029;DHT22;37054;52.054;8.600;2024-02-16T09:32:53;19.90;70.10
51029;DHT22;37054;52.054;8.600;2024-02-16T09:35:19;19.90;70.40
51029;DHT22;37054;52.054;8.600;2024-02-16T09:37:44;20.00;68.60
51029;DHT22;37054;52.054;8.600;2024-02-16T09:40:12;20.10;69.40
51029;DHT22;37054;52.054;8.600;2024-02-16T09:42:38;20.20;68.80
51029;DHT22;37054;52.054;8.600;2024-02-16T09:45:05;20.20;67.80
51029;DHT22;37054;52.054;8.600;2024-02-16T09:47:32;20.20;68.10
51029;DHT22;37054;52.054;8.600;2024-02-16T09:50:00;20.30;68.00
51029;DHT22;37054;52.054;8.600;2024-02-16T09:52:26;20.30;67.90
51029;DHT22;37054;52.054;8.600;2024-02-16T09:54:51;20.40;68.40
51029;DHT22;37054;52.054;8.600;2024-02-16T09:57:17;20.50;69.70
51029;DHT22;37054;52.054;8.600;2024-02-16T09:59:43;20.60;69.20
51029;DHT22;37054;52.054;8.600;2024-02-16T10:02:09;20.60;66.60
51029;DHT22;37054;52.054;8.600;2024-02-16T10:04:34;20.60;64.90
51029;DHT22;37054;52.054;8.600;2024-02-16T10:07:00;20.60;66.60
51029;DHT22;37054;52.054;8.600;2024-02-16T10:09:27;20.50;66.40
51029;DHT22;37054;52.054;8.600;2024-02-16T10:11:54;20.50;66.30
51029;DHT22;37054;52.054;8.600;2024-02-16T10:14:20;20.40;66.10
51029;DHT22;37054;52.054;8.600;2024-02-16T10:16:47;20.30;66.10
51029;DHT22;37054;52.054;8.600;2024-02-16T10:19:13;20.30;66.80
51029;DHT22;37054;52.054;8.600;2024-02-16T10:21:40;20.40;66.20
51029;DHT22;37054;52.054;8.600;2024-02-16T10:24:06;20.40;66.40
51029;DHT22;37054;52.054;8.600;2024-02-16T10:26:37;20.80;68.00
51029;DHT22;37054;52.054;8.600;2024-02-16T10:29:08;21.10;68.20
51029;DHT22;37054;52.054;8.600;2024-02-16T10:31:34;21.60;66.50
51029;DHT22;37054;52.054;8.600;2024-02-16T10:34:01;22.10;67.60
51029;DHT22;37054;52.054;8.600;2024-02-16T10:36:34;22.50;67.50
51029;DHT22;37054;52.054;8.600;2024-02-16T10:39:01;22.90;67.10
51029;DHT22;37054;52.054;8.600;2024-02-16T10:41:33;23.30;65.80
51029;DHT22;37054;52.054;8.600;2024-02-16T10:44:01;23.70;68.50
51029;DHT22;37054;52.054;8.600;2024-02-16T10:46:27;24.10;67.80
51029;DHT22;37054;52.054;8.600;2024-02-16T10:48:53;24.50;68.30
51029;DHT22;37054;52.054;8.600;2024-02-16T10:51:45;24.90;64.10
51029;DHT22;37054;52.054;8.600;2024-02-16T10:54:14;25.00;61.10
51029;DHT22;37054;52.054;8.600;2024-02-16T10:56:41;25.00;59.50
51029;DHT22;37054;52.054;8.600;2024-02-16T10:59:10;24.80;60.60
51029;DHT22;37054;52.054;8.600;2024-02-16T11:01:43;24.70;55.20
51029;DHT22;37054;52.054;8.600;2024-02-16T11:04:15;24.40;56.60
51029;DHT22;37054;52.054;8.600;2024-02-16T11:06:48;24.10;57.70
51029;DHT22;37054;52.054;8.600;2024-02-16T11:09:27;23.80;58.20
51029;DHT22;37054;52.054;8.600;2024-02-16T11:12:00;23.50;57.50
51029;DHT22;37054;52.054;8.600;2024-02-16T11:14:35;23.20;59.50
51029;DHT22;37054;52.054;8.600;2024-02-16T11:17:02;23.10;59.10
51029;DHT22;37054;52.054;8.600;2024-02-16T11:19:32;23.00;60.00
51029;DHT22;37054;52.054;8.600;2024-02-16T11:21:58;23.00;59.30
51029;DHT22;37054;52.054;8.600;2024-02-16T11:24:31;23.10;59.30
51029;DHT22;37054;52.054;8.600;2024-02-16T11:26:57;23.20;58.60
51029;DHT22;37054;52.054;8.600;2024-02-16T11:29:25;23.30;59.70
51029;DHT22;37054;52.054;8.600;2024-02-16T11:31:50;23.30;58.60
51029;DHT22;37054;52.054;8.600;2024-02-16T11:34:25;23.30;60.10
51029;DHT22;37054;52.054;8.600;2024-02-16T11:37:12;23.30;59.20
51029;DHT22;37054;52.054;8.600;2024-02-16T11:39:38;23.20;56.80
51029;DHT22;37054;52.054;8.600;2024-02-16T11:42:07;23.10;58.60
51029;DHT22;37054;52.054;8.600;2024-02-16T11:44:36;23.00;58.60
51029;DHT22;37054;52.054;8.600;2024-02-16T11:47:03;22.90;58.80
51029;DHT22;37054;52.054;8.600;2024-02-16T11:49:29;22.80;57.70
51029;DHT22;37054;52.054;8.600;2024-02-16T11:51:56;22.70;56.10
51029;DHT22;37054;52.054;8.600;2024-02-16T11:54:22;22.40;57.40
51029;DHT22;37054;52.054;8.600;2024-02-16T11:56:48;22.40;56.50
51029;DHT22;37054;52.054;8.600;2024-02-16T11:59:17;22.30;57.20
51029;DHT22;37054;52.054;8.600;2024-02-16T12:01:57;22.10;57.60
51029;DHT22;37054;52.054;8.600;2024-02-16T12:04:28;22.10;57.50
51029;DHT22;37054;52.054;8.600;2024-02-16T12:07:02;22.00;57.00
51029;DHT22;37054;52.054;8.600;2024-02-16T12:09:28;22.00;57.40
51029;DHT22;37054;52.054;8.600;2024-02-16T12:11:54;22.00;58.30
51029;DHT22;37054;52.054;8.600;2024-02-16T12:14:22;22.10;57.50
51029;DHT22;37054;52.054;8.600;2024-02-16T12:16:54;22.20;56.30
51029;DHT22;37054;52.054;8.600;2024-02-16T12:19:21;22.10;55.30
51029;DHT22;37054;52.054;8.600;2024-02-16T12:21:54;22.10;54.30
51029;DHT22;37054;52.054;8.600;2024-02-16T12:24:21;22.10;54.00
51029;DHT22;37054;52.054;8.600;2024-02-16T12:26:47;22.00;55.20
51029;DHT22;37054;52.054;8.600;2024-02-16T12:29:13;22.10;55.50
51029;DHT22;37054;52.054;8.600;2024-02-16T12:31:46;22.20;54.00
51029;DHT22;37054;52.054;8.600;2024-02-16T12:34:13;22.20;54.00
51029;DHT22;37054;52.054;8.600;2024-02-16T12:36:40;22.30;53.90
51029;DHT22;37054;52.054;8.600;2024-02-16T12:39:08;22.30;53.40
51029;DHT22;37054;52.054;8.600;2024-02-16T12:41:37;22.30;53.50
51029;DHT22;37054;52.054;8.600;2024-02-16T12:44:03;22.30;53.70
51029;DHT22;37054;52.054;8.600;2024-02-16T12:46:30;22.30;53.10
51029;DHT22;37054;52.054;8.600;2024-02-16T12:48:55;22.30;53.20
51029;DHT22;37054;52.054;8.600;2024-02-16T12:51:21;22.30;53.10
51029;DHT22;37054;52.054;8.600;2024-02-16T12:53:47;22.30;52.80
51029;DHT22;37054;52.054;8.600;2024-02-16T12:56:12;22.30;51.90
51029;DHT22;37054;52.054;8.600;2024-02-16T12:58:38;22.20;52.10
51029;DHT22;37054;52.054;8.600;2024-02-16T13:01:04;22.20;52.30
51029;DHT22;37054;52.054;8.600;2024-02-16T13:03:34;22.10;52.90
51029;DHT22;37054;52.054;8.600;2024-02-16T13:05:59;22.10;53.00
51029;DHT22;37054;52.054;8.600;2024-02-16T13:08:25;22.00;52.40
51029;DHT22;37054;52.054;8.600;2024-02-16T13:10:50;22.00;53.00
51029;DHT22;37054;52.054;8.600;2024-02-16T13:13:16;21.90;51.80
51029;DHT22;37054;52.054;8.600;2024-02-16T13:15:42;21.80;52.30
51029;DHT22;37054;52.054;8.600;2024-02-16T13:18:07;21.80;52.20
51029;DHT22;37054;52.054;8.600;2024-02-16T13:20:32;21.70;51.80
51029;DHT22;37054;52.054;8.600;2024-02-16T13:23:00;21.60;52.00
51029;DHT22;37054;52.054;8.600;2024-02-16T13:25:26;21.50;52.60
51029;DHT22;37054;52.054;8.600;2024-02-16T13:27:51;21.50;53.10
51029;DHT22;37054;52.054;8.600;2024-02-16T13:30:17;21.50;53.30
51029;DHT22;37054;52.054;8.600;2024-02-16T13:32:42;21.40;53.80
51029;DHT22;37054;52.054;8.600;2024-02-16T13:35:08;21.50;53.50
51029;DHT22;37054;52.054;8.600;2024-02-16T13:37:34;21.50;53.50
51029;DHT22;37054;52.054;8.600;2024-02-16T13:39:59;21.40;53.60
51029;DHT22;37054;52.054;8.600;2024-02-16T13:42:26;21.40;53.30
51029;DHT22;37054;52.054;8.600;2024-02-16T13:44:53;21.30;53.10
51029;DHT22;37054;52.054;8.600;2024-02-16T13:47:19;21.30;53.40
51029;DHT22;37054;52.054;8.600;2024-02-16T13:49:44;21.20;53.00
51029;DHT22;37054;52.054;8.600;2024-02-16T13:52:10;21.20;53.10
51029;DHT22;37054;52.054;8.600;2024-02-16T13:54:36;21.10;53.20
51029;DHT22;37054;52.054;8.600;2024-02-16T13:57:01;21.10;53.70
51029;DHT22;37054;52.054;8.600;2024-02-16T13:59:27;21.00;53.70
51029;DHT22;37054;52.054;8.600;2024-02-16T14:01:53;21.00;53.90
51029;DHT22;37054;52.054;8.600;2024-02-16T14:04:19;21.00;54.10
51029;DHT22;37054;52.054;8.600;2024-02-16T14:06:45;21.00;54.10
51029;DHT22;37054;52.054;8.600;2024-02-16T14:09:10;21.00;54.10
51029;DHT22;37054;52.054;8.600;2024-02-16T14:11:39;20.90;53.60
51029;DHT22;37054;52.054;8.600;2024-02-16T14:14:07;20.80;53.60
51029;DHT22;37054;52.054;8.600;2024-02-16T14:16:32;20.80;53.80
51029;DHT22;37054;52.054;8.600;2024-02-16T14:18:58;20.80;54.20
51029;DHT22;37054;52.054;8.600;2024-02-16T14:21:23;20.80;54.20
51029;DHT22;37054;52.054;8.600;2024-02-16T14:23:49;20.80;54.10
51029;DHT22;37054;52.054;8.600;2024-02-16T14:26:14;20.70;53.90
51029;DHT22;37054;52.054;8.600;2024-02-16T14:28:40;20.60;54.10
51029;DHT22;37054;52.054;8.600;2024-02-16T14:31:05;20.60;54.60
51029;DHT22;37054;52.054;8.600;2024-02-16T14:33:32;20.50;54.60
51029;DHT22;37054;52.054;8.600;2024-02-16T14:35:57;20.50;54.70
51029;DHT22;37054;52.054;8.600;2024-02-16T14:38:23;20.50;54.60
51029;DHT22;37054;52.054;8.600;2024-02-16T14:40:49;20.40;55.00
51029;DHT22;37054;52.054;8.600;2024-02-16T14:43:14;20.30;55.10
51029;DHT22;37054;52.054;8.600;2024-02-16T14:45:39;20.30;55.30
51029;DHT22;37054;52.054;8.600;2024-02-16T14:48:05;20.20;55.70
51029;DHT22;37054;52.054;8.600;2024-02-16T14:50:31;20.20;55.90
51029;DHT22;37054;52.054;8.600;2024-02-16T14:52:56;20.20;55.90
51029;DHT22;37054;52.054;8.600;2024-02-16T14:55:22;20.10;56.00
51029;DHT22;37054;52.054;8.600;2024-02-16T14:57:47;20.10;56.30
51029;DHT22;37054;52.054;8.600;2024-02-16T15:00:13;20.00;56.70
51029;DHT22;37054;52.054;8.600;2024-02-16T15:02:40;19.80;56.90
51029;DHT22;37054;52.054;8.600;2024-02-16T15:05:08;19.70;57.50
51029;DHT22;37054;52.054;8.600;2024-02-16T15:07:34;19.50;58.00
51029;DHT22;37054;52.054;8.600;2024-02-16T15:10:00;19.40;58.60
51029;DHT22;37054;52.054;8.600;2024-02-16T15:12:26;19.20;59.10
51029;DHT22;37054;52.054;8.600;2024-02-16T15:14:52;19.10;59.70
51029;DHT22;37054;52.054;8.600;2024-02-16T15:17:18;18.90;60.30
51029;DHT22;37054;52.054;8.600;2024-02-16T15:19:44;18.80;60.90
51029;DHT22;37054;52.054;8.600;2024-02-16T15:22:10;18.70;61.60
51029;DHT22;37054;52.054;8.600;2024-02-16T15:24:36;18.60;62.30